sensor_id;sensor_type;location;lat;lon;timestamp;pressure;altitude;pressure_sealevel;temperature;humidity
36138;BME280;67787;50.074;21.904;2023-02-13T18:51:02;100680.33;;;3.23;69.72
36138;BME280;67787;50.074;21.904;2023-02-13T18:53:31;100675.48;;;3.19;69.36
36138;BME280;67787;50.074;21.904;2023-02-13T18:56:04;100680.58;;;3.18;69.91
36138;BME280;67787;50.074;21.904;2023-02-13T18:58:33;100680.23;;;3.18;70.30
36138;BME280;67787;50.074;21.904;2023-02-13T19:01:09;100672.53;;;3.18;70.05
36138;BME280;67787;50.074;21.904;2023-02-13T19:03:39;100668.48;;;3.17;69.29
36138;BME280;67787;50.074;21.904;2023-02-13T19:06:10;100669.73;;;3.16;70.15
36138;BME280;67787;50.074;21.904;2023-02-13T19:08:38;100663.77;;;3.16;69.06
36138;BME280;67787;50.074;21.904;2023-02-13T19:11:09;100665.02;;;3.15;69.47
36138;BME280;67787;50.074;21.904;2023-02-13T19:13:40;100664.67;;;3.14;69.63
36138;BME280;67787;50.074;21.904;2023-02-13T19:16:14;100666.80;;;3.13;69.50
36138;BME280;67787;50.074;21.904;2023-02-13T19:18:45;100668.91;;;3.12;69.39
36138;BME280;67787;50.074;21.904;2023-02-13T19:21:14;100659.98;;;3.12;69.27
36138;BME280;67787;50.074;21.904;2023-02-13T19:23:44;100662.09;;;3.11;69.51
36138;BME280;67787;50.074;21.904;2023-02-13T19:26:15;100658.23;;;3.11;69.51
36138;BME280;67787;50.074;21.904;2023-02-13T19:28:44;100658.08;;;3.10;70.22
36138;BME280;67787;50.074;21.904;2023-02-13T19:31:23;100668.41;;;3.11;70.22
36138;BME280;67787;50.074;21.904;2023-02-13T19:33:52;100674.17;;;3.12;70.10
36138;BME280;67787;50.074;21.904;2023-02-13T19:36:23;100672.25;;;3.11;69.90
36138;BME280;67787;50.074;21.904;2023-02-13T19:39:00;100675.06;;;3.12;70.18
36138;BME280;67787;50.074;21.904;2023-02-13T19:41:31;100673.14;;;3.11;70.36
36138;BME280;67787;50.074;21.904;2023-02-13T19:44:00;100676.64;;;3.11;70.00
36138;BME280;67787;50.074;21.904;2023-02-13T19:46:30;100673.67;;;3.11;69.44
36138;BME280;67787;50.074;21.904;2023-02-13T19:48:59;100681.03;;;3.11;69.67
36138;BME280;67787;50.074;21.904;2023-02-13T19:51:30;100690.31;;;3.11;69.36
36138;BME280;67787;50.074;21.904;2023-02-13T19:54:00;100694.17;;;3.11;69.80
36138;BME280;67787;50.074;21.904;2023-02-13T19:56:30;100687.14;;;3.12;69.66
36138;BME280;67787;50.074;21.904;2023-02-13T19:58:58;100687.67;;;3.12;69.53
36138;BME280;67787;50.074;21.904;2023-02-13T20:01:28;100680.88;;;3.10;69.91
36138;BME280;67787;50.074;21.904;2023-02-13T20:03:57;100681.94;;;3.09;69.99
36138;BME280;67787;50.074;21.904;2023-02-13T20:06:30;100686.15;;;3.08;70.65
36138;BME280;67787;50.074;21.904;2023-02-13T20:08:59;100687.90;;;3.09;70.06
36138;BME280;67787;50.074;21.904;2023-02-13T20:11:28;100687.36;;;3.09;70.16
36138;BME280;67787;50.074;21.904;2023-02-13T20:13:58;100682.09;;;3.10;69.83
36138;BME280;67787;50.074;21.904;2023-02-13T20:16:27;100689.27;;;3.11;70.32
36138;BME280;67787;50.074;21.904;2023-02-13T20:19:01;100698.72;;;3.12;69.59
36138;BME280;67787;50.074;21.904;2023-02-13T20:21:33;100702.23;;;3.11;69.89
36138;BME280;67787;50.074;21.904;2023-02-13T20:24:02;100701.36;;;3.11;70.15
36138;BME280;67787;50.074;21.904;2023-02-13T20:26:31;100695.77;;;3.10;69.72
36138;BME280;67787;50.074;21.904;2023-02-13T20:28:59;100689.48;;;3.09;70.20
36138;BME280;67787;50.074;21.904;2023-02-13T20:31:28;100689.83;;;3.09;70.11
36138;BME280;67787;50.074;21.904;2023-02-13T20:33:57;100681.06;;;3.08;70.11
36138;BME280;67787;50.074;21.904;2023-02-13T20:36:28;100672.66;;;3.08;69.93
36138;BME280;67787;50.074;21.904;2023-02-13T20:38:59;100669.35;;;3.07;69.66
36138;BME280;67787;50.074;21.904;2023-02-13T20:41:30;100669.02;;;3.06;70.28
36138;BME280;67787;50.074;21.904;2023-02-13T20:44:01;100672.20;;;3.04;70.36
36138;BME280;67787;50.074;21.904;2023-02-13T20:46:34;100672.92;;;3.03;69.78
36138;BME280;67787;50.074;21.904;2023-02-13T20:49:03;100667.54;;;3.00;69.57
36138;BME280;67787;50.074;21.904;2023-02-13T20:51:31;100673.34;;;2.99;69.93
36138;BME280;67787;50.074;21.904;2023-02-13T20:54:00;100671.77;;;2.99;69.79
36138;BME280;67787;50.074;21.904;2023-02-13T20:56:28;100677.01;;;2.99;69.68
36138;BME280;67787;50.074;21.904;2023-02-13T20:58:57;100684.02;;;3.00;69.80
36138;BME280;67787;50.074;21.904;2023-02-13T21:01:29;100689.27;;;3.00;69.78
36138;BME280;67787;50.074;21.904;2023-02-13T21:03:57;100693.48;;;3.00;69.94
36138;BME280;67787;50.074;21.904;2023-02-13T21:06:28;100702.09;;;2.98;70.88
36138;BME280;67787;50.074;21.904;2023-02-13T21:08:57;100704.02;;;2.98;70.14
36138;BME280;67787;50.074;21.904;2023-02-13T21:11:26;100701.90;;;2.98;69.89
36138;BME280;67787;50.074;21.904;2023-02-13T21:13:57;100697.52;;;2.98;70.26
36138;BME280;67787;50.074;21.904;2023-02-13T21:16:28;100696.48;;;2.98;70.11
36138;BME280;67787;50.074;21.904;2023-02-13T21:19:00;100704.38;;;2.97;69.60
36138;BME280;67787;50.074;21.904;2023-02-13T21:21:30;100710.34;;;2.97;70.24
36138;BME280;67787;50.074;21.904;2023-02-13T21:24:02;100709.14;;;2.95;70.34
36138;BME280;67787;50.074;21.904;2023-02-13T21:26:30;100709.66;;;2.95;70.57
36138;BME280;67787;50.074;21.904;2023-02-13T21:28:58;100707.04;;;2.95;70.01
36138;BME280;67787;50.074;21.904;2023-02-13T21:31:30;100704.43;;;2.94;69.89
36138;BME280;67787;50.074;21.904;2023-02-13T21:34:06;100699.89;;;2.93;70.23
36138;BME280;67787;50.074;21.904;2023-02-13T21:36:36;100699.90;;;2.92;69.80
36138;BME280;67787;50.074;21.904;2023-02-13T21:39:05;100694.66;;;2.91;69.54
36138;BME280;67787;50.074;21.904;2023-02-13T21:41:35;100695.91;;;2.89;69.43
36138;BME280;67787;50.074;21.904;2023-02-13T21:44:03;100698.36;;;2.89;69.84
36138;BME280;67787;50.074;21.904;2023-02-13T21:46:32;100696.80;;;2.89;70.13
36138;BME280;67787;50.074;21.904;2023-02-13T21:49:02;100702.92;;;2.89;69.53
36138;BME280;67787;50.074;21.904;2023-02-13T21:51:33;100696.96;;;2.89;69.58
36138;BME280;67787;50.074;21.904;2023-02-13T21:54:03;100695.05;;;2.88;69.42
36138;BME280;67787;50.074;21.904;2023-02-13T21:56:33;100692.78;;;2.87;69.68
36138;BME280;67787;50.074;21.904;2023-02-13T21:59:02;100695.77;;;2.86;69.77
36138;BME280;67787;50.074;21.904;2023-02-13T22:01:33;100695.48;;;2.84;70.03
36138;BME280;67787;50.074;21.904;2023-02-13T22:04:07;100692.86;;;2.82;69.98
36138;BME280;67787;50.074;21.904;2023-02-13T22:06:36;100694.46;;;2.81;69.45
36138;BME280;67787;50.074;21.904;2023-02-13T22:09:11;100695.70;;;2.80;69.70
36138;BME280;67787;50.074;21.904;2023-02-13T22:11:39;100696.05;;;2.79;70.17
36138;BME280;67787;50.074;21.904;2023-02-13T22:14:14;100693.29;;;2.77;69.78
36138;BME280;67787;50.074;21.904;2023-02-13T22:16:44;100685.77;;;2.76;69.76
36138;BME280;67787;50.074;21.904;2023-02-13T22:19:14;100678.77;;;2.75;70.07
36138;BME280;67787;50.074;21.904;2023-02-13T22:21:43;100668.98;;;2.73;70.19
36138;BME280;67787;50.074;21.904;2023-02-13T22:24:11;100666.20;;;2.72;70.12
36138;BME280;67787;50.074;21.904;2023-02-13T22:26:41;100659.91;;;2.71;69.78
36138;BME280;67787;50.074;21.904;2023-02-13T22:29:13;100645.40;;;2.69;69.46
36138;BME280;67787;50.074;21.904;2023-02-13T22:31:42;100642.95;;;2.69;69.32
36138;BME280;67787;50.074;21.904;2023-02-13T22:34:11;100643.48;;;2.69;69.69
36138;BME280;67787;50.074;21.904;2023-02-13T22:36:41;100646.66;;;2.67;69.65
36138;BME280;67787;50.074;21.904;2023-02-13T22:39:10;100647.89;;;2.66;69.33
36138;BME280;67787;50.074;21.904;2023-02-13T22:41:38;100644.58;;;2.65;70.14
36138;BME280;67787;50.074;21.904;2023-02-13T22:44:06;100645.46;;;2.65;69.35
36138;BME280;67787;50.074;21.904;2023-02-13T22:46:33;100641.60;;;2.65;69.46
36138;BME280;67787;50.074;21.904;2023-02-13T22:49:02;100638.29;;;2.65;69.68
36138;BME280;67787;50.074;21.904;2023-02-13T22:51:33;100632.00;;;2.63;69.82
36138;BME280;67787;50.074;21.904;2023-02-13T22:54:02;100626.58;;;2.63;69.69
36138;BME280;67787;50.074;21.904;2023-02-13T22:56:30;100626.42;;;2.61;69.56
36138;BME280;67787;50.074;21.904;2023-02-13T22:58:58;100626.09;;;2.60;69.30
36138;BME280;67787;50.074;21.904;2023-02-13T23:01:27;100624.00;;;2.60;69.69
36138;BME280;67787;50.074;21.904;2023-02-13T23:03:55;100618.59;;;2.58;69.78
36138;BME280;67787;50.074;21.904;2023-02-13T23:06:24;100625.09;;;2.56;69.95
36138;BME280;67787;50.074;21.904;2023-02-13T23:08:54;100621.98;;;2.54;69.64
36138;BME280;67787;50.074;21.904;2023-02-13T23:11:26;100622.52;;;2.52;69.71
36138;BME280;67787;50.074;21.904;2023-02-13T23:14:13;100622.36;;;2.51;69.58
36138;BME280;67787;50.074;21.904;2023-02-13T23:16:43;100615.90;;;2.50;69.71
36138;BME280;67787;50.074;21.904;2023-02-13T23:19:29;100621.86;;;2.49;69.71
36138;BME280;67787;50.074;21.904;2023-02-13T23:21:59;100616.28;;;2.47;70.17
36138;BME280;67787;50.074;21.904;2023-02-13T23:24:28;100618.23;;;2.46;69.60
36138;BME280;67787;50.074;21.904;2023-02-13T23:26:58;100616.86;;;2.44;70.16
36138;BME280;67787;50.074;21.904;2023-02-13T23:29:26;100613.74;;;2.43;69.92
36138;BME280;67787;50.074;21.904;2023-02-13T23:31:54;100610.96;;;2.41;70.23
36138;BME280;67787;50.074;21.904;2023-02-13T23:34:22;100607.13;;;2.39;70.05
36138;BME280;67787;50.074;21.904;2023-02-13T23:36:50;100603.98;;;2.38;70.11
36138;BME280;67787;50.074;21.904;2023-02-13T23:39:18;100593.31;;;2.38;69.34
36138;BME280;67787;50.074;21.904;2023-02-13T23:41:48;100592.98;;;2.37;69.60
36138;BME280;67787;50.074;21.904;2023-02-13T23:44:16;100592.48;;;2.35;69.54
36138;BME280;67787;50.074;21.904;2023-02-13T23:46:43;100595.45;;;2.34;70.01
36138;BME280;67787;50.074;21.904;2023-02-13T23:49:11;100598.45;;;2.34;70.10
36138;BME280;67787;50.074;21.904;2023-02-13T23:51:39;100599.86;;;2.33;70.48
36138;BME280;67787;50.074;21.904;2023-02-13T23:54:07;100601.09;;;2.33;70.25
36138;BME280;67787;50.074;21.904;2023-02-13T23:56:36;100601.09;;;2.32;70.35
36138;BME280;67787;50.074;21.904;2023-02-13T23:59:04;100591.82;;;2.32;70.25
